Terminal Aerodrome Forecast
Issued by NWS

Home | Current Version | Previous Version | Text Only | Print | Product List | Glossary On
Versions: 1 2 3 4 5 6 7 8 9 10 11 12 13 14 15 16 17 18 19 20 21 22
000
FTUS45 KTFX 041136
TAFHVR
TAF
KHVR 041136Z 0412/0512 21011KT P6SM OVC100
     FM041500 22014KT P6SM BKN070
     FM042100 29015G25KT P6SM VCSH SCT030 OVC050
      TEMPO 0421/0424 2SM -SN OVC030
     FM050000 33015G25KT 2SM -SN OVC015
     FM050700 33012KT 2SM -SN BR OVC015=

USA.gov is the U.S. government's official web portal to all federal, state and local government web resources and services.